.
WxDataArchive / Data Records for 2016-02-04
2016-02-03 February 2016 2016-02-05

Data Records for Thursday, 04 February 2016

Time	Temp	Chill	HIndex	Humid	Dewpt	 Wind 	HiWind	WindDir	Rain 	Barom
-----	----	-----	------	-----	-----	------	------	-------	-----	-----
00:00	31.0	31.0	31.0	86	27.3	2	5	292	0.00	29.997 
00:05	30.9	30.9	30.9	86	27.2	1	3	270	0.00	29.997 
00:10	30.7	30.7	30.7	86	27.0	3	6	270	0.00	29.997 
00:15	30.7	30.7	30.7	86	27.0	2	5	270	0.00	29.999 
00:20	30.6	30.6	30.6	85	26.6	2	6	292	0.00	29.999 
00:25	30.6	30.6	30.6	85	26.6	2	6	292	0.00	29.999 
00:30	30.6	30.6	30.6	85	26.6	2	6	248	0.00	30.006 
00:35	30.7	30.7	30.7	84	26.4	2	4	248	0.00	30.006 
00:40	30.7	30.7	30.7	84	26.4	2	5	292	0.00	30.006 
00:45	30.6	30.6	30.6	84	26.4	2	6	292	0.00	30.006 
00:50	30.6	30.6	30.6	84	26.4	2	6	248	0.00	30.006 
00:55	30.4	30.4	30.4	84	26.2	2	5	270	0.00	30.006 
01:00	30.4	30.4	30.4	84	26.2	2	5	270	0.00	30.017 
01:05	30.4	30.4	30.4	84	26.2	2	4	270	0.00	30.017 
01:10	30.4	30.4	30.4	84	26.2	2	6	270	0.00	30.017 
01:15	30.3	30.3	30.3	84	26.1	2	5	248	0.00	30.025 
01:20	30.4	30.4	30.4	84	26.2	1	4	270	0.00	30.025 
01:25	30.3	30.3	30.3	84	26.1	3	6	292	0.00	30.025 
01:30	30.3	30.3	30.3	84	26.1	2	4	270	0.00	30.024 
01:35	30.3	30.3	30.3	84	26.1	1	4	270	0.00	30.024 
01:40	30.3	30.3	30.3	84	26.1	2	4	270	0.00	30.024 
01:45	30.3	30.3	30.3	84	26.1	1	5	248	0.00	30.031 
01:50	30.3	30.3	30.3	85	26.3	1	5	248	0.00	30.031 
01:55	30.3	30.3	30.3	85	26.3	1	3	248	0.00	30.031 
02:00	30.3	30.3	30.3	85	26.3	1	3	248	0.00	30.033 
02:05	30.3	30.3	30.3	85	26.3	0	2	248	0.00	30.033 
02:10	30.3	30.3	30.3	85	26.3	1	3	248	0.00	30.033 
02:15	30.1	30.1	30.1	85	26.1	1	4	248	0.00	30.047 
02:20	30.1	30.1	30.1	85	26.1	1	4	248	0.00	30.047 
02:25	30.1	30.1	30.1	85	26.1	2	4	292	0.00	30.047 
02:30	30.0	30.0	30.0	86	26.3	1	3	248	0.00	30.051 
02:35	30.0	30.0	30.0	86	26.3	2	4	248	0.00	30.051 
02:40	29.8	29.8	29.8	86	26.1	2	5	270	0.00	30.051 
02:45	29.8	29.8	29.8	86	26.1	2	4	248	0.00	30.062 
02:50	29.8	29.8	29.8	86	26.1	1	5	248	0.00	30.062 
02:55	29.7	29.7	29.7	86	26.0	3	6	270	0.00	30.062 
03:00	29.7	29.7	29.7	86	26.0	1	4	248	0.00	30.070 
03:05	29.5	29.5	29.5	86	25.8	2	4	248	0.00	30.070 
03:10	29.5	29.5	29.5	86	25.8	2	5	248	0.00	30.070 
03:15	29.4	29.4	29.4	86	25.7	1	3	248	0.00	30.080 
03:20	29.4	29.4	29.4	86	25.7	2	4	248	0.00	30.080 
03:25	29.4	29.4	29.4	87	26.0	1	5	292	0.00	30.080 
03:30	29.3	29.3	29.3	87	25.9	1	2	292	0.00	30.083 
03:35	29.3	29.3	29.3	88	26.2	1	3	292	0.00	30.083 
03:40	29.3	29.3	29.3	88	26.2	1	3	270	0.00	30.083 
03:45	29.1	29.1	29.1	88	26.0	1	4	270	0.00	30.083 
03:50	29.0	29.0	29.0	88	25.9	1	4	292	0.00	30.083 
03:55	29.0	29.0	29.0	88	25.9	1	4	248	0.00	30.083 
04:00	29.0	29.0	29.0	88	25.9	1	3	248	0.00	30.084 
04:05	28.8	28.8	28.8	88	25.7	2	5	292	0.00	30.084 
04:10	28.8	28.8	28.8	87	25.4	1	4	270	0.00	30.084 
04:15	28.8	28.8	28.8	87	25.4	1	4	270	0.00	30.089 
04:20	28.7	28.7	28.7	86	25.1	1	3	270	0.00	30.089 
04:25	28.8	28.8	28.8	86	25.2	1	3	270	0.00	30.089 
04:30	28.8	28.8	28.8	85	24.9	1	3	270	0.00	30.095 
04:35	28.8	28.8	28.8	85	24.9	1	3	270	0.00	30.095 
04:40	28.8	28.8	28.8	85	24.9	1	3	270	0.00	30.095 
04:45	29.0	29.0	29.0	84	24.8	0	2	270	0.00	30.101 
04:50	28.8	28.8	28.8	84	24.6	1	3	270	0.00	30.101 
04:55	28.8	28.8	28.8	82	24.0	2	6	248	0.00	30.101 
05:00	28.8	28.8	28.8	82	24.0	1	4	292	0.00	30.104 
05:05	28.8	28.8	28.8	81	23.7	1	4	270	0.00	30.104 
05:10	28.7	28.7	28.7	81	23.6	1	4	248	0.00	30.104 
05:15	28.8	28.8	28.8	81	23.7	1	3	248	0.00	30.114 
05:20	28.8	28.8	28.8	81	23.7	1	3	248	0.00	30.114 
05:25	28.8	28.8	28.8	80	23.4	1	2	248	0.00	30.114 
05:30	28.7	28.7	28.7	79	23.0	2	3	270	0.00	30.117 
05:35	28.7	28.7	28.7	78	22.7	1	3	248	0.00	30.117 
05:40	28.7	28.7	28.7	78	22.7	1	3	248	0.00	30.117 
05:45	28.7	28.7	28.7	78	22.7	1	3	248	0.00	30.119 
05:50	28.7	28.7	28.7	78	22.7	1	4	270	0.00	30.119 
05:55	28.5	28.5	28.5	78	22.5	1	3	270	0.00	30.119 
06:00	28.5	28.5	28.5	78	22.5	0	3	270	0.00	30.122 
06:05	28.5	28.5	28.5	78	22.5	0	2	270	0.00	30.122 
06:10	28.5	28.5	28.5	79	22.8	0	3	270	0.00	30.122 
06:15	28.5	28.5	28.5	79	22.8	0	2	270	0.00	30.128 
06:20	28.4	28.4	28.4	79	22.7	1	3	270	0.00	30.128 
06:25	28.4	28.4	28.4	79	22.7	1	4	270	0.00	30.128 
06:30	28.4	28.4	28.4	79	22.7	0	1	270	0.00	30.130 
06:35	28.2	28.2	28.2	79	22.5	0	2	270	0.00	30.130 
06:40	28.2	28.2	28.2	79	22.5	1	3	270	0.00	30.130 
06:45	28.2	28.2	28.2	79	22.5	0	2	270	0.00	30.135 
06:50	28.2	28.2	28.2	78	22.2	0	2	270	0.00	30.135 
06:55	28.2	28.2	28.2	78	22.2	1	4	270	0.00	30.135 
07:00	28.1	28.1	28.1	77	21.8	0	2	270	0.00	30.136 
07:05	28.1	28.1	28.1	77	21.8	0	3	270	0.00	30.136 
07:10	28.1	28.1	28.1	77	21.8	0	2	270	0.00	30.136 
07:15	28.1	28.1	28.1	77	21.8	0	2	270	0.00	30.140 
07:20	27.9	27.9	27.9	77	21.6	1	4	248	0.00	30.140 
07:25	27.8	27.8	27.8	77	21.5	1	4	248	0.00	30.140 
07:30	27.8	27.8	27.8	77	21.5	1	3	248	0.00	30.151 
07:35	27.6	27.6	27.6	77	21.4	0	2	248	0.00	30.151 
07:40	27.5	27.5	27.5	77	21.3	0	2	248	0.00	30.151 
07:45	27.5	27.5	27.5	77	21.3	0	2	248	0.00	30.154 
07:50	27.5	27.5	27.5	77	21.3	0	2	248	0.00	30.154 
07:55	27.5	27.5	27.5	77	21.3	1	3	248	0.00	30.154 
08:00	27.5	27.5	27.5	77	21.3	1	4	248	0.00	30.165 
08:05	27.3	27.3	27.3	77	21.1	1	4	292	0.00	30.165 
08:10	27.3	27.3	27.3	77	21.1	1	2	270	0.00	30.165 
08:15	27.3	27.3	27.3	77	21.1	0	3	270	0.00	30.171 
08:20	27.3	27.3	27.3	77	21.1	1	3	270	0.00	30.171 
08:25	27.3	27.3	27.3	77	21.1	0	2	248	0.00	30.171 
08:30	27.3	27.3	27.3	77	21.1	0	2	248	0.00	30.183 
08:35	27.3	27.3	27.3	77	21.1	0	3	248	0.00	30.183 
08:40	27.3	27.3	27.3	77	21.1	1	4	248	0.00	30.183 
08:45	27.2	27.2	27.2	77	21.0	0	3	248	0.00	30.184 
08:50	27.2	27.2	27.2	78	21.3	0	2	248	0.00	30.184 
08:55	27.2	27.2	27.2	78	21.3	1	3	248	0.00	30.184 
09:00	27.2	27.2	27.2	78	21.3	0	2	248	0.00	30.187 
09:05	27.3	27.3	27.3	78	21.4	0	2	248	0.00	30.187 
09:10	27.3	27.3	27.3	78	21.4	0	3	248	0.00	30.187 
09:15	27.3	27.3	27.3	78	21.4	0	2	248	0.00	30.195 
09:20	27.3	27.3	27.3	78	21.4	0	2	248	0.00	30.195 
09:25	27.3	27.3	27.3	77	21.1	0	3	248	0.00	30.195 
09:30	27.3	27.3	27.3	77	21.1	1	2	248	0.00	30.201 
09:35	27.2	27.2	27.2	78	21.3	0	2	248	0.00	30.201 
09:40	27.2	27.2	27.2	78	21.3	1	5	248	0.00	30.201 
09:45	27.2	27.2	27.2	78	21.3	0	2	292	0.00	30.203 
09:50	27.2	27.2	27.2	77	21.0	1	3	292	0.00	30.203 
09:55	27.0	27.0	27.0	77	20.8	1	2	270	0.00	30.203 
10:00	27.0	27.0	27.0	77	20.8	1	3	270	0.00	30.209 
10:05	27.0	27.0	27.0	78	21.1	0	2	270	0.00	30.209 
10:10	27.0	27.0	27.0	77	20.8	1	7	270	0.00	30.209 
10:15	26.9	26.9	26.9	77	20.7	1	3	225	0.00	30.215 
10:20	26.9	26.9	26.9	77	20.7	0	3	248	0.00	30.215 
10:25	26.7	26.7	26.7	78	20.8	1	4	248	0.00	30.215 
10:30	26.7	26.7	26.7	78	20.8	0	4	248	0.00	30.216 
10:35	26.7	26.7	26.7	78	20.8	1	4	248	0.00	30.216 
10:40	26.6	26.6	26.6	77	20.4	1	4	248	0.00	30.216 
10:45	26.6	26.6	26.6	77	20.4	0	3	270	0.00	30.218 
10:50	26.6	26.6	26.6	77	20.4	1	3	270	0.00	30.218 
10:55	26.4	26.4	26.4	78	20.5	1	4	248	0.00	30.218 
11:00	26.6	26.6	26.6	78	20.7	1	2	248	0.00	30.218 
11:05	26.7	26.7	26.7	79	21.1	1	3	248	0.00	30.218 
11:10	26.7	26.7	26.7	78	20.8	1	4	270	0.00	30.218 
11:15	26.9	26.9	26.9	77	20.7	1	4	270	0.00	30.218 
11:20	26.7	26.7	26.7	77	20.5	1	4	270	0.00	30.218 
11:25	26.7	26.7	26.7	77	20.5	1	5	270	0.00	30.218 
11:30	26.7	26.7	26.7	76	20.2	1	4	248	0.00	30.219 
11:35	26.6	26.6	26.6	76	20.1	1	3	270	0.00	30.219 
11:40	26.6	26.6	26.6	76	20.1	0	2	270	0.00	30.219 
11:45	26.4	26.4	26.4	76	19.9	1	3	270	0.00	30.222 
11:50	26.3	26.3	26.3	77	20.1	1	3	270	0.00	30.222 
11:55	26.3	26.3	26.3	77	20.1	0	2	270	0.00	30.222 
12:00	26.3	26.3	26.3	77	20.1	1	5	248	0.00	30.221 
12:05	26.1	26.1	26.1	79	20.5	0	2	248	0.00	30.221 
12:10	26.1	26.1	26.1	79	20.5	0	2	248	0.00	30.221 
12:15	26.0	26.0	26.0	80	20.7	2	5	270	0.00	30.218 
12:20	26.0	26.0	26.0	81	21.0	1	3	270	0.00	30.218 
12:25	26.0	26.0	26.0	82	21.3	1	4	248	0.00	30.218 
12:30	26.0	26.0	26.0	81	21.0	1	3	248	0.00	30.214 
12:35	26.0	26.0	26.0	81	21.0	1	3	248	0.00	30.214 
12:40	26.1	26.1	26.1	81	21.1	0	5	292	0.00	30.214 
12:45	26.4	26.4	26.4	81	21.4	1	4	292	0.00	30.207 
12:50	26.4	26.4	26.4	81	21.4	1	4	270	0.00	30.207 
12:55	26.7	26.7	26.7	81	21.7	0	2	270	0.00	30.207 
13:00	27.2	27.2	27.2	80	21.9	1	4	270	0.00	30.202 
13:05	27.3	27.3	27.3	78	21.4	1	4	270	0.00	30.202 
13:10	27.6	27.6	27.6	76	21.0	1	3	248	0.00	30.202 
13:15	27.8	27.8	27.8	75	20.9	1	5	248	0.00	30.198 
13:20	27.9	27.9	27.9	74	20.7	1	4	248	0.00	30.198 
13:25	28.1	28.1	28.1	73	20.6	1	3	248	0.00	30.198 
13:30	28.2	28.2	28.2	73	20.7	2	6	248	0.00	30.199 
13:35	28.2	28.2	28.2	73	20.7	2	6	248	0.00	30.199 
13:40	28.2	28.2	28.2	72	20.4	1	3	248	0.00	30.199 
13:45	28.2	28.2	28.2	71	20.0	1	5	270	0.00	30.201 
13:50	28.2	28.2	28.2	70	19.7	2	4	248	0.00	30.201 
13:55	28.1	28.1	28.1	69	19.3	1	4	248	0.00	30.201 
14:00	28.1	28.1	28.1	69	19.3	1	3	248	0.00	30.201 
14:05	28.1	28.1	28.1	69	19.3	1	5	225	0.00	30.201 
14:10	28.2	28.2	28.2	70	19.7	1	3	248	0.00	30.201 
14:15	28.4	28.4	28.4	70	19.9	1	4	248	0.00	30.199 
14:20	28.1	28.1	28.1	69	19.3	1	4	248	0.00	30.199 
14:25	27.9	27.9	27.9	70	19.4	1	4	248	0.00	30.199 
14:30	27.5	27.5	27.5	70	19.0	1	4	225	0.00	30.198 
14:35	27.2	27.2	27.2	71	19.1	2	4	270	0.00	30.198 
14:40	26.9	26.9	26.9	71	18.8	1	5	270	0.00	30.198 
14:45	26.7	26.7	26.7	69	17.9	2	4	248	0.00	30.197 
14:50	26.6	26.6	26.6	69	17.8	2	4	248	0.00	30.197 
14:55	26.6	26.6	26.6	68	17.5	2	5	248	0.00	30.197 
15:00	26.7	26.7	26.7	68	17.6	1	5	248	0.00	30.202 
15:05	27.0	27.0	27.0	68	17.9	1	5	248	0.00	30.202 
15:10	27.0	27.0	27.0	66	17.2	2	7	248	0.00	30.202 
15:15	27.3	27.3	27.3	65	17.1	2	5	248	0.00	30.204 
15:20	27.8	27.8	27.8	65	17.6	1	6	248	0.00	30.204 
15:25	27.8	27.8	27.8	64	17.2	1	6	248	0.00	30.204 
15:30	27.5	27.5	27.5	64	16.9	1	3	225	0.00	30.208 
15:35	27.3	27.3	27.3	65	17.1	1	4	248	0.00	30.208 
15:40	26.7	26.7	26.7	64	16.2	2	5	270	0.00	30.208 
15:45	26.4	26.4	26.4	65	16.3	1	4	270	0.00	30.218 
15:50	26.4	26.4	26.4	65	16.3	0	3	270	0.00	30.218 
15:55	26.4	26.4	26.4	65	16.3	0	2	270	0.00	30.218 
16:00	26.1	26.1	26.1	65	16.0	2	4	270	0.00	30.223 
16:05	25.8	25.8	25.8	65	15.7	1	3	270	0.00	30.223 
16:10	25.7	25.7	25.7	65	15.6	1	4	270	0.00	30.223 
16:15	25.4	25.4	25.4	64	14.9	2	6	270	0.00	30.228 
16:20	25.3	25.3	25.3	65	15.2	2	4	292	0.00	30.228 
16:25	25.1	25.1	25.1	67	15.7	1	3	292	0.00	30.228 
16:30	25.0	25.0	25.0	69	16.3	1	4	292	0.00	30.235 
16:35	24.8	24.8	24.8	69	16.1	1	4	270	0.00	30.235 
16:40	24.7	24.7	24.7	68	15.7	1	2	292	0.00	30.235 
16:45	24.8	24.8	24.8	67	15.4	1	2	270	0.00	30.238 
16:50	24.8	24.8	24.8	67	15.4	0	3	270	0.00	30.238 
16:55	25.0	25.0	25.0	66	15.3	0	2	270	0.00	30.238 
17:00	25.0	25.0	25.0	65	14.9	1	3	270	0.00	30.241 
17:05	25.1	25.1	25.1	64	14.7	1	3	292	0.00	30.241 
17:10	25.1	25.1	25.1	63	14.3	1	3	270	0.00	30.241 
17:15	25.3	25.3	25.3	63	14.5	1	3	270	0.00	30.246 
17:20	25.3	25.3	25.3	63	14.5	1	3	292	0.00	30.246 
17:25	25.3	25.3	25.3	63	14.5	1	5	338	0.00	30.246 
17:30	25.4	25.4	25.4	63	14.6	1	3	338	0.00	30.251 
17:35	25.4	25.4	25.4	63	14.6	0	2	292	0.00	30.251 
17:40	25.4	25.4	25.4	63	14.6	1	3	292	0.00	30.251 
17:45	25.4	25.4	25.4	63	14.6	0	2	292	0.00	30.254 
17:50	25.4	25.4	25.4	63	14.6	0	2	292	0.00	30.254 
17:55	25.6	25.6	25.6	63	14.8	1	4	315	0.00	30.254 
18:00	25.4	25.4	25.4	63	14.6	0	2	315	0.00	30.255 
18:05	25.4	25.4	25.4	63	14.6	0	1	315	0.00	30.255 
18:10	25.4	25.4	25.4	64	14.9	0	2	315	0.00	30.255 
18:15	25.4	25.4	25.4	64	14.9	0	2	315	0.00	30.270 
18:20	25.4	25.4	25.4	64	14.9	0	2	315	0.00	30.270 
18:25	25.4	25.4	25.4	65	15.3	0	2	315	0.00	30.270 
18:30	25.3	25.3	25.3	65	15.2	0	1	315	0.00	30.276 
18:35	25.1	25.1	25.1	65	15.0	0	2	292	0.00	30.276 
18:40	25.0	25.0	25.0	66	15.3	0	2	292	0.00	30.276 
18:45	24.8	24.8	24.8	66	15.1	0	2	292	0.00	30.285 
18:50	24.7	24.7	24.7	66	15.0	0	1	292	0.00	30.285 
18:55	24.5	24.5	24.5	66	14.8	0	1	292	0.00	30.285 
19:00	24.4	24.4	24.4	66	14.7	0	1	292	0.00	30.289 
19:05	24.4	24.4	24.4	66	14.7	0	3	292	0.00	30.289 
19:10	24.2	24.2	24.2	67	14.8	0	1	292	0.00	30.289 
19:15	24.1	24.1	24.1	67	14.8	0	1	292	0.00	30.290 
19:20	23.9	23.9	23.9	67	14.6	0	1	292	0.00	30.290 
19:25	23.8	23.8	23.8	68	14.8	0	1	292	0.00	30.290 
19:30	23.6	23.6	23.6	68	14.6	0	1	292	0.00	30.297 
19:35	23.6	23.6	23.6	69	14.9	0	2	292	0.00	30.297 
19:40	23.5	23.5	23.5	69	14.9	0	1	292	0.00	30.297 
19:45	23.3	23.3	23.3	69	14.7	0	1	292	0.00	30.301 
19:50	23.2	23.2	23.2	69	14.6	0	0	---	0.00	30.301 
19:55	23.0	23.0	23.0	69	14.4	0	0	---	0.00	30.301 
20:00	23.0	23.0	23.0	69	14.4	0	1	292	0.00	30.302 
20:05	22.9	22.9	22.9	69	14.3	0	0	---	0.00	30.302 
20:10	22.7	22.7	22.7	69	14.1	0	0	---	0.00	30.302 
20:15	22.5	22.5	22.5	69	13.9	0	0	---	0.00	30.299 
20:20	22.4	22.4	22.4	70	14.1	0	0	---	0.00	30.299 
20:25	22.2	22.2	22.2	70	13.9	0	0	---	0.00	30.299 
20:30	22.1	22.1	22.1	70	13.8	0	0	---	0.00	30.303 
20:35	21.9	21.9	21.9	71	14.0	0	0	---	0.00	30.303 
20:40	21.8	21.8	21.8	71	13.9	0	0	---	0.00	30.303 
20:45	21.4	21.4	21.4	72	13.8	0	0	---	0.00	30.305 
20:50	21.1	21.1	21.1	73	13.8	0	0	---	0.00	30.305 
20:55	21.0	21.0	21.0	73	13.7	0	0	---	0.00	30.305 
21:00	20.6	20.6	20.6	73	13.3	0	0	---	0.00	30.306 
21:05	20.5	20.5	20.5	73	13.2	0	0	---	0.00	30.306 
21:10	20.2	20.2	20.2	74	13.3	0	0	---	0.00	30.306 
21:15	20.0	20.0	20.0	74	13.1	0	0	---	0.00	30.308 
21:20	19.7	19.7	19.7	75	13.1	0	0	---	0.00	30.308 
21:25	19.5	19.5	19.5	76	13.2	0	0	---	0.00	30.308 
21:30	19.4	19.4	19.4	76	13.1	0	0	---	0.00	30.309 
21:35	19.2	19.2	19.2	77	13.2	0	0	---	0.00	30.309 
21:40	19.1	19.1	19.1	77	13.1	0	0	---	0.00	30.309 
21:45	19.1	19.1	19.1	78	13.4	0	0	---	0.00	30.309 
21:50	18.9	18.9	18.9	79	13.5	0	0	---	0.00	30.309 
21:55	18.9	18.9	18.9	80	13.8	0	0	---	0.00	30.309 
22:00	18.9	18.9	18.9	81	14.1	0	0	---	0.00	30.310 
22:05	18.9	18.9	18.9	81	14.1	0	0	---	0.00	30.310 
22:10	18.8	18.8	18.8	81	14.0	0	0	---	0.00	30.310 
22:15	18.8	18.8	18.8	81	14.0	0	0	---	0.00	30.313 
22:20	18.6	18.6	18.6	81	13.8	0	0	---	0.00	30.313 
22:25	18.4	18.4	18.4	81	13.6	0	0	---	0.00	30.313 
22:30	18.4	18.4	18.4	81	13.6	0	0	---	0.00	30.316 
22:35	18.3	18.3	18.3	81	13.5	0	0	---	0.00	30.316 
22:40	18.1	18.1	18.1	81	13.3	0	0	---	0.00	30.316 
22:45	18.0	18.0	18.0	82	13.5	0	0	---	0.00	30.318 
22:50	18.0	18.0	18.0	82	13.5	0	0	---	0.00	30.318 
22:55	18.0	18.0	18.0	82	13.5	0	0	---	0.00	30.318 
23:00	18.0	18.0	18.0	82	13.5	0	0	---	0.00	30.325 
23:05	18.0	18.0	18.0	82	13.5	0	0	---	0.00	30.325 
23:10	17.8	17.8	17.8	83	13.5	0	0	---	0.00	30.325 
23:15	17.8	17.8	17.8	83	13.5	0	0	---	0.00	30.326 
23:20	17.7	17.7	17.7	83	13.4	0	0	---	0.00	30.326 
23:25	17.7	17.7	17.7	83	13.4	0	0	---	0.00	30.326 
23:30	17.7	17.7	17.7	83	13.4	0	0	---	0.00	30.327 
23:35	17.7	17.7	17.7	84	13.7	0	0	---	0.00	30.327 
23:40	17.5	17.5	17.5	84	13.5	0	0	---	0.00	30.327 
23:45	17.5	17.5	17.5	84	13.5	0	0	---	0.00	30.327 
23:50	17.5	17.5	17.5	84	13.5	0	0	---	0.00	30.327 
23:55	17.5	17.5	17.5	84	13.5	0	0	---	0.00	30.327 

CoCoRaHS
IN-AL-39
A2 Web Hosting
Creative Commons License
GoDaddy
search engine by freefind advanced

loaded 2018-11-15 03:36:33 • last modified 2010-11-18 10:43:29
Privacy PolicyDisclaimer
• wx.awcolley.com is powered by PmWiki v.2002016 •
• all content (unless otherwise noted) © 2018 A W Colley